Time;durP1;ratioP1;P1;durP2;ratioP2;P2;SDS_P1;SDS_P2;PMS_P1;PMS_P2;Temp;Humidity;BMP_temperature;BMP_pressure;BME280_temperature;BME280_humidity;BME280_pressure;Samples;Min_cycle;Max_cycle;Signal;HPM_P1;HPM_P2
2022/06/02 00:00:13;;;;;;;4.87;3.93;;;;;;;24.43;44.72;95225.13;6175270;28;104517;-62
2022/06/02 00:03:26;;;;;;;4.10;3.73;;;;;;;24.39;44.96;95218.84;6208112;28;103289;-61
2022/06/02 00:06:42;;;;;;;5.33;3.83;;;;;;;24.38;44.68;95225.31;6207269;28;103242;-62
2022/06/02 00:10:00;;;;;;;5.60;4.13;;;;;;;24.37;44.72;95221.84;6197389;28;103423;-62
2022/06/02 00:13:18;;;;;;;5.37;3.90;;;;;;;24.36;44.60;95220.28;6206856;28;103436;-62
2022/06/02 00:16:29;;;;;;;4.30;3.90;;;;;;;24.38;44.89;95214.59;6206321;28;103997;-61
2022/06/02 00:19:42;;;;;;;3.83;3.47;;;;;;;24.38;44.77;95212.72;6206174;28;103065;-61
2022/06/02 00:22:55;;;;;;;4.03;3.73;;;;;;;24.42;44.82;95219.00;6195050;28;103380;-61
2022/06/02 00:26:07;;;;;;;4.07;3.73;;;;;;;24.44;44.82;95213.34;6203974;28;103415;-64
2022/06/02 00:29:24;;;;;;;7.00;4.03;;;;;;;24.42;44.67;95208.31;6207777;28;103085;-61
2022/06/02 00:32:39;;;;;;;3.73;3.43;;;;;;;24.42;44.43;95208.31;6200206;28;103014;-61
2022/06/02 00:35:51;;;;;;;3.93;3.40;;;;;;;24.43;44.52;95209.88;6202145;28;103644;-61
2022/06/02 00:38:58;;;;;;;4.00;3.70;;;;;;;24.41;44.72;95206.72;6203590;28;103263;-61
2022/06/02 00:42:09;;;;;;;4.93;3.60;;;;;;;24.39;44.69;95200.91;6205506;28;103088;-61
2022/06/02 00:45:15;;;;;;;3.30;3.10;;;;;;;24.41;44.76;95201.38;6195056;28;103137;-62
2022/06/02 00:48:41;;;;;;;7.43;3.50;;;;;;;24.32;45.01;95203.25;6208314;28;104393;-62
2022/06/02 00:52:05;;;;;;;4.10;3.27;;;;;;;24.22;45.27;95208.16;6209313;28;104178;-62
2022/06/02 00:58:44;;;;;;;5.10;3.57;;;;;;;24.14;45.38;95207.06;6205848;28;103369;-62
2022/06/02 01:01:48;;;;;;;4.47;3.60;;;;;;;24.05;45.47;95204.38;6208394;28;102753;-62
2022/06/02 01:04:51;;;;;;;5.57;3.50;;;;;;;24.15;45.36;95208.63;6203289;28;103020;-67
2022/06/02 01:08:03;;;;;;;6.60;3.10;;;;;;;24.07;45.52;95207.53;6174797;28;103218;-61
2022/06/02 01:11:14;;;;;;;4.43;3.60;;;;;;;24.11;45.42;95215.69;6194566;28;103171;-62
2022/06/02 01:14:37;;;;;;;3.27;2.97;;;;;;;24.10;45.56;95216.81;6207350;28;103090;-61
2022/06/02 01:18:04;;;;;;;4.50;3.10;;;;;;;23.92;45.96;95218.66;6203549;28;103576;-66
2022/06/02 01:21:27;;;;;;;5.70;3.30;;;;;;;23.85;46.48;95210.28;6212021;28;103287;-62
2022/06/02 01:25:11;;;;;;;4.23;3.40;;;;;;;23.85;46.29;95207.63;6210952;28;103151;-62
2022/06/02 01:28:38;;;;;;;4.07;3.70;;;;;;;23.97;45.80;95207.00;6209780;28;103029;-63
2022/06/02 01:31:50;;;;;;;6.53;4.50;;;;;;;24.03;45.93;95206.59;6192635;28;103367;-62
2022/06/02 01:35:05;;;;;;;3.87;3.47;;;;;;;24.12;45.68;95203.91;6211167;28;103398;-62
2022/06/02 01:38:17;;;;;;;6.70;4.33;;;;;;;24.16;45.82;95204.84;6211916;28;104373;-62
2022/06/02 01:41:32;;;;;;;7.20;4.40;;;;;;;24.16;45.70;95210.19;6200016;28;105567;-63
2022/06/02 01:44:42;;;;;;;5.70;4.27;;;;;;;24.17;45.61;95212.53;6210956;28;103186;-62
2022/06/02 01:47:51;;;;;;;6.60;4.20;;;;;;;24.19;45.63;95213.03;6211190;28;103240;-61
2022/06/02 01:51:03;;;;;;;6.27;4.50;;;;;;;24.20;45.27;95211.16;6211297;28;104063;-66
2022/06/02 01:54:19;;;;;;;8.93;4.80;;;;;;;24.19;45.66;95206.88;6205743;28;102854;-69
2022/06/02 01:57:38;;;;;;;4.50;4.10;;;;;;;24.20;45.14;95211.16;6209922;28;103573;-67
2022/06/02 02:00:43;;;;;;;4.37;4.00;;;;;;;24.18;46.06;95208.78;6210014;28;104107;-67
2022/06/02 02:03:59;;;;;;;6.10;4.03;;;;;;;24.18;45.87;95211.44;6199540;28;103119;-67
2022/06/02 02:07:09;;;;;;;5.20;4.37;;;;;;;24.18;45.64;95210.66;6200068;28;103107;-66
2022/06/02 02:10:22;;;;;;;3.90;3.60;;;;;;;24.18;45.66;95210.66;6205450;28;102866;-68
2022/06/02 02:13:35;;;;;;;5.10;3.63;;;;;;;24.20;45.24;95205.81;6209676;28;103717;-66
2022/06/02 02:16:51;;;;;;;3.80;3.50;;;;;;;24.14;45.40;95196.34;6199205;28;105317;-67
2022/06/02 02:20:02;;;;;;;4.17;3.77;;;;;;;24.03;45.32;95201.25;6208944;28;104002;-67
2022/06/02 02:23:14;;;;;;;5.33;3.30;;;;;;;24.05;45.65;95192.91;6186198;28;103221;-67
2022/06/02 02:26:25;;;;;;;4.53;3.57;;;;;;;24.09;45.21;95193.84;6181713;28;104050;-67
2022/06/02 02:29:37;;;;;;;4.00;3.70;;;;;;;24.11;45.21;95192.44;6210197;28;104934;-67
2022/06/02 02:32:48;;;;;;;4.10;3.70;;;;;;;24.13;45.04;95190.22;6195081;28;104606;-67
2022/06/02 02:36:02;;;;;;;7.00;3.70;;;;;;;24.13;45.18;95194.78;6210471;28;103617;-67
2022/06/02 02:39:14;;;;;;;3.90;3.50;;;;;;;24.17;45.15;95195.72;6200061;28;103262;-67
2022/06/02 02:42:26;;;;;;;8.43;4.23;;;;;;;24.19;45.25;95190.84;6207105;28;105369;-67
2022/06/02 02:45:41;;;;;;;4.40;4.03;;;;;;;24.19;44.80;95190.84;6210263;28;103256;-66
2022/06/02 02:48:52;;;;;;;4.53;4.13;;;;;;;24.18;44.91;95189.25;6198658;28;103067;-67
2022/06/02 02:52:03;;;;;;;11.00;10.10;;;;;;;24.22;45.37;95192.91;6208964;28;103001;-67
2022/06/02 02:55:13;;;;;;;15.80;13.17;;;;;;;24.24;45.21;95201.41;6207113;28;104190;-66
2022/06/02 02:58:24;;;;;;;11.00;10.00;;;;;;;24.25;45.15;95204.84;6206902;28;103185;-66
2022/06/02 03:01:37;;;;;;;8.70;7.87;;;;;;;24.22;45.31;95211.63;6195523;28;107068;-67
2022/06/02 03:04:51;;;;;;;7.47;6.70;;;;;;;24.23;45.17;95209.75;6208538;28;102984;-67
2022/06/02 03:08:03;;;;;;;6.13;5.53;;;;;;;24.23;45.16;95205.19;6209918;28;103207;-67
2022/06/02 03:11:27;;;;;;;5.97;5.57;;;;;;;24.29;45.09;95213.81;6202722;28;103276;-66
2022/06/02 03:14:49;;;;;;;7.33;5.57;;;;;;;24.30;44.85;95212.72;6207427;28;102981;-68
2022/06/02 03:18:14;;;;;;;4.70;4.30;;;;;;;24.00;45.39;95217.09;6211364;28;104290;-66
2022/06/02 03:21:23;;;;;;;5.10;4.60;;;;;;;23.77;45.92;95214.53;6201380;28;103123;-63
2022/06/02 03:24:58;;;;;;;7.10;4.70;;;;;;;23.79;45.77;95216.91;6191872;28;104917;-63
2022/06/02 03:28:16;;;;;;;5.60;4.27;;;;;;;23.76;46.01;95229.00;6199810;28;104541;-63
2022/06/02 03:31:30;;;;;;;4.17;3.87;;;;;;;23.73;46.10;95234.97;6202231;28;104472;-63
2022/06/02 03:34:40;;;;;;;5.23;4.37;;;;;;;23.90;45.55;95237.69;6193713;28;103679;-63
2022/06/02 03:37:56;;;;;;;4.40;4.00;;;;;;;23.64;46.06;95233.38;6208995;28;104129;-63
2022/06/02 03:41:26;;;;;;;4.73;4.10;;;;;;;23.67;45.90;95230.06;6211064;28;103132;-62
2022/06/02 03:44:45;;;;;;;5.90;3.80;;;;;;;23.88;45.48;95223.84;6190254;28;104045;-63
2022/06/02 03:48:08;;;;;;;7.87;4.40;;;;;;;24.01;45.42;95229.38;6202644;28;103115;-62
2022/06/02 03:51:22;;;;;;;5.80;4.60;;;;;;;24.03;45.42;95227.19;6210017;28;103212;-63
2022/06/02 03:54:56;;;;;;;8.73;5.07;;;;;;;24.10;47.84;95224.81;6196759;28;103218;-62
2022/06/02 03:58:18;;;;;;;7.53;5.40;;;;;;;24.24;45.98;95230.81;6168513;28;103697;-63
2022/06/02 04:01:25;;;;;;;6.40;5.77;;;;;;;24.23;45.88;95233.81;6197480;28;104362;-63
2022/06/02 04:04:39;;;;;;;7.63;5.53;;;;;;;24.29;45.71;95229.84;6201100;28;103295;-64
2022/06/02 04:07:52;;;;;;;5.67;5.17;;;;;;;24.26;45.98;95227.81;6196477;28;104057;-63
2022/06/02 04:11:05;;;;;;;7.10;4.90;;;;;;;24.25;46.23;95228.94;6199495;28;105246;-63
2022/06/02 04:14:20;;;;;;;5.83;4.20;;;;;;;24.10;46.47;95217.59;6200621;28;103428;-62
2022/06/02 04:17:30;;;;;;;6.10;4.50;;;;;;;24.25;45.54;95213.66;6201175;28;104032;-62
2022/06/02 04:21:07;;;;;;;10.53;5.00;;;;;;;24.26;47.29;95219.78;6190999;27;103445;-64
2022/06/02 04:24:21;;;;;;;8.63;5.07;;;;;;;23.96;46.63;95219.59;6206733;28;103256;-62
2022/06/02 04:27:33;;;;;;;12.03;5.10;;;;;;;23.81;47.42;95220.03;6208929;28;103351;-63
2022/06/02 04:30:48;;;;;;;5.93;4.37;;;;;;;23.78;46.72;95213.44;6201486;28;103039;-62
2022/06/02 04:33:57;;;;;;;8.43;5.03;;;;;;;23.79;47.17;95216.91;6208954;28;104135;-62
2022/06/02 04:37:10;;;;;;;4.67;4.27;;;;;;;23.79;46.73;95211.53;6210162;28;103466;-62
2022/06/02 04:40:22;;;;;;;5.97;4.40;;;;;;;23.78;47.18;95209.97;6210021;28;104401;-63
2022/06/02 04:43:35;;;;;;;8.10;5.17;;;;;;;23.74;46.94;95220.50;6199837;28;104026;-63
2022/06/02 04:46:51;;;;;;;7.23;4.83;;;;;;;23.72;47.25;95219.25;6208096;28;104802;-63
2022/06/02 04:50:00;;;;;;;4.67;4.37;;;;;;;23.76;47.33;95217.53;6213302;28;104172;-63
2022/06/02 04:53:14;;;;;;;5.87;4.40;;;;;;;23.74;47.03;95215.16;6210871;28;104368;-62
2022/06/02 04:56:28;;;;;;;6.37;5.43;;;;;;;23.73;47.67;95224.28;6211967;28;103437;-63
2022/06/02 04:59:40;;;;;;;9.90;5.83;;;;;;;23.73;47.52;95231.50;6215672;28;103091;-63
2022/06/02 05:02:56;;;;;;;7.03;6.33;;;;;;;23.77;48.02;95230.56;6217874;28;103924;-62
2022/06/02 05:06:07;;;;;;;6.70;6.00;;;;;;;23.78;47.65;95234.03;6206301;28;102902;-62
2022/06/02 05:09:18;;;;;;;6.77;6.07;;;;;;;23.78;47.77;95229.47;6217666;28;104311;-62
2022/06/02 05:12:28;;;;;;;8.20;7.40;;;;;;;23.78;47.80;95229.47;6217773;28;103193;-63
2022/06/02 05:16:03;;;;;;;8.07;7.37;;;;;;;23.79;47.95;95233.72;6213019;28;103197;-62
2022/06/02 05:19:39;;;;;;;8.43;7.30;;;;;;;23.80;47.93;95242.53;6215459;28;103054;-63
2022/06/02 05:23:25;;;;;;;8.03;6.10;;;;;;;24.07;48.35;95241.50;6201242;28;103103;-65
2022/06/02 05:27:07;;;;;;;8.60;6.10;;;;;;;24.09;48.04;95244.66;6217060;28;103090;-64
2022/06/02 05:30:47;;;;;;;7.30;5.67;;;;;;;24.15;47.29;95248.72;6212689;28;103328;-64
2022/06/02 05:34:24;;;;;;;5.97;5.37;;;;;;;24.30;47.01;95244.81;6216985;28;103061;-64
2022/06/02 05:37:40;;;;;;;7.33;6.60;;;;;;;24.28;48.10;95241.66;6217481;28;104383;-64
2022/06/02 05:40:49;;;;;;;8.63;6.70;;;;;;;24.10;49.12;95244.31;6205412;28;104247;-65
2022/06/02 05:44:07;;;;;;;9.80;5.93;;;;;;;24.13;48.49;95242.91;6217618;28;102823;-65
2022/06/02 05:47:31;;;;;;;7.83;6.00;;;;;;;24.14;49.33;95244.47;6217174;28;104425;-66
2022/06/02 05:50:44;;;;;;;6.70;5.80;;;;;;;24.17;49.59;95254.53;6206375;28;102963;-64
2022/06/02 05:54:03;;;;;;;8.17;6.13;;;;;;;24.03;49.91;95248.56;6217379;28;104201;-64
2022/06/02 05:57:18;;;;;;;9.00;5.73;;;;;;;23.92;49.56;95252.63;6217489;28;104574;-63
2022/06/02 06:00:32;;;;;;;6.40;5.83;;;;;;;23.74;49.82;95252.56;6214860;28;103641;-63
2022/06/02 06:04:19;;;;;;;7.90;5.77;;;;;;;23.97;49.44;95247.91;6203976;28;104013;-63
2022/06/02 06:07:37;;;;;;;7.20;5.60;;;;;;;23.77;50.19;95262.63;6188237;28;103049;-63
2022/06/02 06:10:50;;;;;;;9.27;6.70;;;;;;;23.78;50.71;95258.06;6212245;28;103181;-63
2022/06/02 06:14:14;;;;;;;6.67;6.07;;;;;;;24.00;50.46;95254.53;6201192;28;103492;-63
2022/06/02 06:17:26;;;;;;;6.53;6.00;;;;;;;23.59;50.84;95251.13;6212928;28;104239;-63
2022/06/02 06:20:43;;;;;;;8.93;8.13;;;;;;;23.79;51.49;95238.28;6213060;28;103600;-63
2022/06/02 06:24:24;;;;;;;6.73;6.10;;;;;;;23.45;50.55;95234.41;6207841;28;102994;-63
2022/06/02 06:27:34;;;;;;;8.93;6.57;;;;;;;24.07;49.35;95236.16;6212172;28;103342;-61
2022/06/02 06:30:49;;;;;;;16.77;7.40;;;;;;;24.27;49.04;95234.75;6212420;28;102732;-62
2022/06/02 06:34:04;;;;;;;6.20;5.70;;;;;;;24.23;49.19;95236.47;6212517;28;104106;-62
2022/06/02 06:37:28;;;;;;;6.33;5.70;;;;;;;24.45;48.27;95239.78;6183491;28;103257;-62
2022/06/02 06:41:05;;;;;;;6.80;5.30;;;;;;;24.66;47.67;95234.53;6187166;28;103332;-63
2022/06/02 06:44:18;;;;;;;7.23;6.50;;;;;;;24.80;47.58;95231.72;6185658;28;106995;-66
2022/06/02 06:47:25;;;;;;;5.70;5.20;;;;;;;24.86;47.29;95226.97;6175136;28;103223;-66
2022/06/02 06:50:39;;;;;;;7.13;6.53;;;;;;;24.97;47.64;95234.34;6187887;28;104201;-66
2022/06/02 06:53:54;;;;;;;8.27;7.40;;;;;;;25.06;47.91;95232.47;6187398;28;103097;-66
2022/06/02 06:57:06;;;;;;;8.30;7.40;;;;;;;25.13;48.05;95226.59;6187671;28;104151;-66
2022/06/02 07:00:19;;;;;;;7.77;6.60;;;;;;;25.14;47.61;95227.38;6177011;28;105214;-66
2022/06/02 07:03:29;;;;;;;17.97;8.70;;;;;;;25.19;48.17;95227.19;6187018;28;104071;-66
2022/06/02 07:06:47;;;;;;;12.33;7.70;;;;;;;25.26;47.32;95219.47;6187509;28;104234;-66
2022/06/02 07:09:58;;;;;;;9.37;8.43;;;;;;;25.27;46.91;95227.19;6176122;28;103763;-66
2022/06/02 07:13:15;;;;;;;10.63;7.20;;;;;;;25.32;46.93;95234.25;6185562;28;103247;-66
2022/06/02 07:16:25;;;;;;;7.70;7.00;;;;;;;25.30;46.71;95234.56;6186570;28;103024;-66
2022/06/02 07:19:46;;;;;;;7.57;6.87;;;;;;;25.39;46.55;95231.88;6185770;28;103042;-66
2022/06/02 07:23:06;;;;;;;7.40;6.60;;;;;;;25.48;46.49;95237.19;6176129;28;103359;-66
2022/06/02 07:26:20;;;;;;;8.33;6.00;;;;;;;25.47;46.49;95233.72;6186584;28;102812;-66
2022/06/02 07:30:03;;;;;;;8.43;6.93;;;;;;;25.54;46.01;95231.34;6186571;28;103353;-66
2022/06/02 07:33:44;;;;;;;8.40;7.60;;;;;;;25.55;46.18;95238.28;6126145;28;103422;-66
2022/06/02 07:37:05;;;;;;;7.43;6.17;;;;;;;25.45;46.11;95233.28;6202513;28;103010;-66
2022/06/02 07:40:39;;;;;;;8.37;6.50;;;;;;;25.50;45.96;95245.69;6210267;28;103071;-66
2022/06/02 07:44:07;;;;;;;7.23;5.43;;;;;;;25.56;46.73;95239.84;6202637;28;104231;-66
2022/06/02 07:47:34;;;;;;;5.77;5.20;;;;;;;25.62;47.13;95241.22;6206490;28;103327;-66
2022/06/02 07:50:44;;;;;;;5.93;5.27;;;;;;;25.64;47.11;95238.22;6210818;28;104183;-67
2022/06/02 07:54:03;;;;;;;5.73;5.17;;;;;;;25.61;46.74;95239.66;6210088;28;103892;-66
2022/06/02 07:57:19;;;;;;;6.70;5.10;;;;;;;25.61;46.50;95239.66;6200427;28;103268;-66
2022/06/02 08:00:26;;;;;;;6.10;5.20;;;;;;;25.63;46.70;95240.13;6210549;28;104071;-66
2022/06/02 08:03:54;;;;;;;10.53;5.13;;;;;;;25.59;46.71;95230.38;6210500;28;103156;-66
2022/06/02 08:07:05;;;;;;;6.60;6.00;;;;;;;25.68;46.07;95233.78;6200494;28;103122;-66
2022/06/02 08:10:17;;;;;;;7.40;5.73;;;;;;;25.63;46.60;95236.66;6210200;28;103278;-66
2022/06/02 08:13:27;;;;;;;7.20;5.10;;;;;;;25.57;46.35;95235.28;6210715;28;103287;-66
2022/06/02 08:16:42;;;;;;;7.37;5.40;;;;;;;25.54;46.12;95231.34;6209986;28;103252;-66
2022/06/02 08:19:59;;;;;;;6.20;5.23;;;;;;;25.48;46.24;95224.59;6199382;28;103079;-66
2022/06/02 08:23:13;;;;;;;5.17;4.67;;;;;;;25.57;45.82;95225.34;6209709;28;104131;-66
2022/06/02 08:26:20;;;;;;;5.77;5.27;;;;;;;25.53;45.69;95227.06;6209445;28;103173;-67
2022/06/02 08:29:36;;;;;;;6.77;5.87;;;;;;;25.45;46.57;95229.81;6199137;28;103023;-66
2022/06/02 08:32:55;;;;;;;8.87;6.63;;;;;;;25.45;45.98;95219.09;6210093;28;103343;-66
2022/06/02 08:36:14;;;;;;;8.67;5.30;;;;;;;25.42;46.00;95225.09;6201000;28;104296;-66
2022/06/02 08:39:52;;;;;;;6.00;5.37;;;;;;;25.36;45.63;95219.13;6185271;28;103037;-66
2022/06/02 08:43:32;;;;;;;8.57;7.67;;;;;;;25.37;45.89;95221.50;6148171;28;103503;-66
2022/06/02 08:46:55;;;;;;;6.93;6.30;;;;;;;25.43;45.29;95219.41;6184574;28;103057;-66
2022/06/02 08:50:34;;;;;;;9.93;8.47;;;;;;;25.64;45.11;95224.81;6185150;28;103108;-66
2022/06/02 08:54:20;;;;;;;10.70;9.70;;;;;;;25.81;45.34;95221.25;6171938;28;103404;-66
2022/06/02 08:57:42;;;;;;;12.10;10.80;;;;;;;25.92;45.18;95217.09;6151944;28;103642;-67
2022/06/02 09:01:02;;;;;;;10.67;9.57;;;;;;;25.94;44.90;95221.00;6184196;28;103989;-68
2022/06/02 09:04:41;;;;;;;10.70;9.60;;;;;;;25.93;45.02;95216.75;6174905;28;106869;-66
2022/06/02 09:08:01;;;;;;;11.57;10.67;;;;;;;25.92;45.08;95225.13;6183391;28;103031;-67
2022/06/02 09:11:25;;;;;;;12.00;10.80;;;;;;;25.94;44.83;95221.00;6184311;28;103301;-66
2022/06/02 09:15:13;;;;;;;10.67;9.67;;;;;;;25.95;44.53;95216.44;6177062;28;102843;-66
2022/06/02 09:18:19;;;;;;;11.23;9.80;;;;;;;25.96;44.90;95218.00;6182449;28;103170;-66
2022/06/02 09:21:28;;;;;;;11.63;10.57;;;;;;;25.96;44.89;95209.97;6184588;28;103980;-66
2022/06/02 09:24:41;;;;;;;9.87;8.97;;;;;;;26.03;44.25;95214.81;6185148;28;104067;-66
2022/06/02 09:28:37;;;;;;;9.07;8.17;;;;;;;26.04;43.64;95217.16;6174012;28;103314;-66
2022/06/02 09:31:56;;;;;;;6.60;6.00;;;;;;;26.11;42.75;95206.72;6084788;28;103252;-67
2022/06/02 09:35:17;;;;;;;8.40;6.63;;;;;;;26.11;42.50;95206.72;6087645;28;103303;-67
2022/06/02 09:38:46;;;;;;;9.87;6.70;;;;;;;26.12;42.60;95213.66;6202601;28;102832;-66
2022/06/02 09:42:08;;;;;;;8.97;6.47;;;;;;;26.08;42.53;95202.00;6214067;28;104491;-66
2022/06/02 09:45:41;;;;;;;8.63;5.90;;;;;;;26.10;42.09;95205.16;6213558;28;106577;-66
2022/06/02 09:49:08;;;;;;;5.30;4.60;;;;;;;26.11;40.43;95203.25;6203554;28;104684;-66
2022/06/02 09:52:25;;;;;;;5.00;4.50;;;;;;;26.11;40.09;95205.94;6213204;28;104261;-67
2022/06/02 09:55:38;;;;;;;5.00;4.07;;;;;;;26.09;39.49;95198.22;6212874;28;103150;-66
2022/06/02 09:58:54;;;;;;;4.73;4.23;;;;;;;26.10;39.60;95193.66;6213426;28;103305;-66
2022/06/02 10:02:12;;;;;;;4.10;3.70;;;;;;;26.07;39.39;95194.31;6202496;28;103276;-67
2022/06/02 10:05:40;;;;;;;5.40;3.50;;;;;;;26.06;39.31;95192.72;6212890;28;103101;-67
2022/06/02 10:09:03;;;;;;;4.27;3.50;;;;;;;26.05;39.37;95191.16;6211764;28;103053;-67
2022/06/02 10:16:04;;;;;;;6.13;3.87;;;;;;;26.02;39.44;95186.44;6212233;28;103676;-66
2022/06/02 10:19:36;;;;;;;5.30;3.60;;;;;;;25.98;39.48;95180.91;6212581;28;103019;-66
2022/06/02 10:22:51;;;;;;;6.70;4.03;;;;;;;25.95;40.11;95187.72;6194280;28;103176;-66
2022/06/02 10:26:11;;;;;;;5.50;3.80;;;;;;;25.94;40.16;95183.47;6213234;28;104238;-66
2022/06/02 10:30:03;;;;;;;5.53;4.30;;;;;;;25.94;40.07;95186.16;6212086;28;103524;-67
2022/06/02 10:33:37;;;;;;;4.97;4.10;;;;;;;25.98;38.45;95180.91;6211140;28;103216;-65
2022/06/02 10:37:09;;;;;;;7.37;3.80;;;;;;;25.95;38.70;95177.00;6192471;28;104076;-66
2022/06/02 10:40:24;;;;;;;3.50;2.97;;;;;;;25.97;37.96;95179.34;6187615;28;103199;-66
2022/06/02 10:43:51;;;;;;;7.40;3.23;;;;;;;25.95;38.26;95176.22;6186881;28;103607;-66
2022/06/02 10:47:33;;;;;;;3.77;3.33;;;;;;;25.89;38.37;95170.28;6177265;28;105061;-66
2022/06/02 10:50:53;;;;;;;4.93;4.40;;;;;;;25.86;39.67;95164.75;6187367;28;104100;-66
2022/06/02 10:54:34;;;;;;;5.80;5.20;;;;;;;25.76;40.68;95154.44;6187728;28;103482;-66
2022/06/02 10:58:09;;;;;;;8.20;7.40;;;;;;;25.74;40.73;95159.34;6177786;28;104146;-66
2022/06/02 11:02:01;;;;;;;9.50;8.20;;;;;;;25.82;39.88;95150.44;6145426;28;103165;-63
2022/06/02 11:05:36;;;;;;;6.93;6.33;;;;;;;25.88;40.10;95149.16;6187070;28;104220;-62
2022/06/02 11:09:34;;;;;;;7.47;6.20;;;;;;;25.87;39.61;95150.22;6176803;28;103457;-62
2022/06/02 11:13:18;;;;;;;10.77;5.70;;;;;;;25.85;39.23;95144.41;6186554;28;103329;-63
2022/06/02 11:16:45;;;;;;;5.40;4.90;;;;;;;25.83;39.10;95141.28;6187027;28;103275;-63
2022/06/02 11:20:39;;;;;;;5.83;4.90;;;;;;;25.84;38.87;95149.00;6176400;28;104098;-62
2022/06/02 11:24:04;;;;;;;5.60;5.03;;;;;;;25.84;38.48;95146.31;6186820;28;103365;-62
2022/06/02 11:27:49;;;;;;;7.17;5.40;;;;;;;25.80;38.80;95140.03;6171449;28;103857;-62
2022/06/02 11:31:32;;;;;;;5.27;4.47;;;;;;;25.81;38.71;95135.47;6165467;28;104293;-62
2022/06/02 11:35:09;;;;;;;6.30;4.53;;;;;;;25.79;38.31;95145.72;6137783;28;104061;-63
2022/06/02 11:38:42;;;;;;;4.17;3.77;;;;;;;25.79;38.39;95146.50;6187073;28;104299;-62
2022/06/02 11:41:53;;;;;;;4.00;3.60;;;;;;;25.79;38.24;95135.00;6173703;28;103291;-63
2022/06/02 11:45:10;;;;;;;5.07;4.57;;;;;;;25.77;39.11;95135.34;6183600;28;103148;-63
2022/06/02 11:48:32;;;;;;;9.87;6.83;;;;;;;25.78;38.75;95138.81;6186778;28;103298;-63
2022/06/02 11:51:58;;;;;;;5.93;5.40;;;;;;;25.79;38.54;95132.31;6186321;28;104109;-63
2022/06/02 11:55:20;;;;;;;5.97;5.37;;;;;;;25.77;38.76;95132.66;6174642;28;104050;-62
2022/06/02 11:58:44;;;;;;;5.37;4.87;;;;;;;25.77;38.70;95126.50;6185398;28;104496;-62
2022/06/02 12:02:05;;;;;;;6.60;6.00;;;;;;;25.75;39.07;95124.16;6185719;28;103174;-62
2022/06/02 12:05:47;;;;;;;6.33;5.73;;;;;;;25.76;39.42;95117.69;6176503;28;103774;-62
2022/06/02 12:09:18;;;;;;;9.00;7.50;;;;;;;25.74;39.83;95109.19;6185445;28;102893;-62
2022/06/02 12:12:42;;;;;;;10.37;8.93;;;;;;;25.71;40.17;95107.16;6185446;28;103213;-62
2022/06/02 12:16:15;;;;;;;10.00;9.20;;;;;;;25.74;40.02;95117.22;6180595;28;104171;-61
2022/06/02 12:19:48;;;;;;;9.80;8.80;;;;;;;25.77;40.19;95108.53;6185835;28;103325;-62
2022/06/02 12:23:14;;;;;;;9.27;8.37;;;;;;;25.78;40.17;95114.69;6185236;28;103076;-63
2022/06/02 12:26:31;;;;;;;9.80;9.00;;;;;;;25.76;40.64;95109.66;6185652;28;104261;-62
2022/06/02 12:29:54;;;;;;;9.53;8.83;;;;;;;25.76;40.73;95109.66;6173888;28;104026;-62
2022/06/02 12:33:53;;;;;;;9.50;8.60;;;;;;;25.79;40.84;95108.19;6185426;28;104391;-63
2022/06/02 12:37:15;;;;;;;9.27;8.37;;;;;;;25.80;40.56;95113.22;6202332;28;102977;-63
2022/06/02 12:40:31;;;;;;;9.10;8.30;;;;;;;25.80;40.74;95107.09;6199718;28;103447;-62
2022/06/02 12:44:09;;;;;;;8.20;7.40;;;;;;;25.79;40.66;95113.56;6209561;28;104117;-63
2022/06/02 12:47:51;;;;;;;9.97;7.60;;;;;;;25.78;40.79;95112.00;6209870;28;103667;-62
2022/06/02 12:51:03;;;;;;;8.20;7.50;;;;;;;25.77;40.88;95113.09;6199677;28;104748;-62
2022/06/02 12:54:54;;;;;;;7.67;6.97;;;;;;;25.76;40.94;95115.00;6210228;28;103311;-62
2022/06/02 12:58:31;;;;;;;8.33;7.50;;;;;;;25.76;40.59;95116.91;6084977;28;102814;-62
2022/06/02 13:01:49;;;;;;;9.60;7.00;;;;;;;25.76;40.82;95119.59;6199268;28;103162;-62
2022/06/02 13:05:28;;;;;;;7.77;7.03;;;;;;;25.74;40.67;95111.88;6208369;28;103205;-62
2022/06/02 13:09:27;;;;;;;7.87;7.13;;;;;;;25.75;40.45;95109.97;6210054;28;104079;-62
2022/06/02 13:13:02;;;;;;;7.17;6.47;;;;;;;25.75;40.51;95107.28;6101550;28;103058;-62
2022/06/02 13:16:41;;;;;;;6.93;6.27;;;;;;;25.73;40.41;95107.63;6213737;28;104048;-62
2022/06/02 13:20:13;;;;;;;6.27;5.67;;;;;;;25.73;40.50;95096.13;6213903;28;104155;-62
2022/06/02 13:24:03;;;;;;;9.27;6.43;;;;;;;25.72;40.73;95110.63;6214088;28;104049;-62
2022/06/02 13:27:31;;;;;;;7.37;6.23;;;;;;;25.72;40.86;95105.28;6096893;28;104380;-62
2022/06/02 13:31:01;;;;;;;6.97;6.37;;;;;;;25.72;40.86;95097.22;6214293;28;102715;-63
2022/06/02 13:34:49;;;;;;;8.07;7.40;;;;;;;25.69;41.24;95091.38;6213128;28;103156;-62
2022/06/02 13:38:24;;;;;;;10.80;9.53;;;;;;;25.68;41.03;95100.53;6182262;28;103690;-62
2022/06/02 13:41:59;;;;;;;11.40;9.20;;;;;;;25.69;41.41;95102.09;6188065;28;104328;-62
2022/06/02 13:45:38;;;;;;;9.60;8.80;;;;;;;25.69;41.83;95098.66;6189111;28;104049;-62
2022/06/02 13:49:18;;;;;;;11.10;10.20;;;;;;;25.71;41.95;95099.13;6178773;28;104212;-62
2022/06/02 13:52:56;;;;;;;11.50;10.57;;;;;;;25.68;42.02;95095.19;6188289;28;103211;-62
2022/06/02 13:59:53;;;;;;;11.67;10.77;;;;;;;25.68;41.88;95097.06;6178347;28;105129;-62
2022/06/02 14:03:27;;;;;;;11.30;10.30;;;;;;;25.67;42.03;95098.97;6188093;28;104495;-61
2022/06/02 14:06:37;;;;;;;11.90;10.90;;;;;;;25.67;42.07;95098.97;6187809;28;103146;-62
2022/06/02 14:09:53;;;;;;;10.70;9.80;;;;;;;25.67;42.01;95101.66;6177252;28;103100;-62
2022/06/02 14:13:22;;;;;;;10.73;9.80;;;;;;;25.68;41.79;95102.44;6187892;28;103595;-62
2022/06/02 14:16:36;;;;;;;10.90;10.00;;;;;;;25.67;42.16;95095.50;6186986;28;103432;-63
2022/06/02 14:19:59;;;;;;;11.77;10.77;;;;;;;25.68;42.69;95092.50;6187951;28;104038;-62
2022/06/02 14:23:12;;;;;;;11.23;9.53;;;;;;;25.67;42.11;95101.66;6176144;28;105058;-62
2022/06/02 14:26:23;;;;;;;10.60;9.70;;;;;;;25.68;42.47;95105.91;6187648;28;103461;-62
2022/06/02 14:29:47;;;;;;;9.63;8.80;;;;;;;25.67;42.56;95101.66;6187188;28;103142;-62
2022/06/02 14:33:03;;;;;;;9.33;8.57;;;;;;;25.67;42.51;95107.00;6176355;28;103257;-62
2022/06/02 14:36:18;;;;;;;9.20;8.47;;;;;;;25.67;42.31;95101.66;6197585;28;104213;-62
2022/06/02 14:39:37;;;;;;;9.47;8.53;;;;;;;25.67;42.74;95103.56;6187300;28;103082;-62
2022/06/02 14:43:12;;;;;;;11.53;9.17;;;;;;;25.65;42.73;95100.41;6187480;28;104263;-62
2022/06/02 14:46:43;;;;;;;9.40;8.63;;;;;;;25.65;42.96;95101.19;6181839;28;103591;-62
2022/06/02 14:50:16;;;;;;;10.93;10.03;;;;;;;25.65;43.47;95109.25;6187015;28;104082;-62
2022/06/02 14:53:46;;;;;;;11.17;8.47;;;;;;;25.71;45.00;95101.00;6187570;28;103926;-63
2022/06/02 14:57:06;;;;;;;12.23;10.97;;;;;;;25.72;45.69;95091.88;6189410;28;103881;-62
2022/06/02 15:00:19;;;;;;;17.87;13.40;;;;;;;25.72;45.61;95098.00;6212626;28;103211;-62
2022/06/02 15:04:05;;;;;;;15.67;14.27;;;;;;;25.71;46.08;95098.31;6211588;28;104476;-62
2022/06/02 15:07:32;;;;;;;17.43;15.93;;;;;;;25.74;47.18;95103.03;6201144;28;103232;-62
2022/06/02 15:10:44;;;;;;;19.27;17.60;;;;;;;25.74;48.50;95105.72;6211300;28;103211;-62
2022/06/02 15:13:56;;;;;;;21.27;19.03;;;;;;;25.72;49.71;95092.66;6212057;28;104019;-62
2022/06/02 15:17:41;;;;;;;22.03;20.13;;;;;;;25.73;50.41;95099.56;6209290;28;104063;-62
2022/06/02 15:21:01;;;;;;;27.93;25.43;;;;;;;25.76;50.44;95108.84;6209508;28;103388;-63
2022/06/02 15:24:26;;;;;;;29.80;26.70;;;;;;;25.77;50.46;95103.16;6210015;28;104368;-64
2022/06/02 15:27:55;;;;;;;27.27;24.97;;;;;;;25.76;51.42;95098.13;6211240;28;103170;-68
2022/06/02 15:31:13;;;;;;;28.53;25.70;;;;;;;25.77;52.66;95113.09;6201171;28;104246;-62
2022/06/02 15:34:53;;;;;;;28.97;26.17;;;;;;;25.76;51.52;95109.66;6210199;28;104075;-62
2022/06/02 15:38:24;;;;;;;31.03;28.10;;;;;;;25.78;50.88;95103.94;6186583;28;104269;-62
2022/06/02 15:41:52;;;;;;;32.43;29.63;;;;;;;25.77;50.86;95113.88;6176839;28;104455;-62
2022/06/02 15:45:33;;;;;;;32.33;29.40;;;;;;;25.78;50.48;95117.34;6185899;28;103092;-63